WEATHER

Warnervale Skycam

North West View

North West View

South West View

South West View

Sydney Airport Forecast

  • YSSY TAF

    TAF YSSY 152305Z 1600/1706 26015KT CAVOK RMK FM160000 MOD TURB BLW 5000FT TL162400 T 15 19 18 14 Q 1018 1016 1016 1018

  • YSSY METAR

    TTF METAR YSSY 160430Z 25016KT CAVOK 21/02 Q1015 RMK RF00.0/000.0 FM0430 MOD TURB BLW 5000FT

All information provided on this page is for general information and should NOT be used for flight planning.